createdAt,value
2017-10-22T00:02:03.029Z,9.70
2017-10-22T00:04:31.277Z,11.00
2017-10-22T00:06:58.721Z,11.73
2017-10-22T00:09:26.175Z,11.50
2017-10-22T00:11:53.648Z,11.13
2017-10-22T00:14:21.100Z,9.57
2017-10-22T00:16:48.540Z,12.17
2017-10-22T00:19:16.285Z,12.70
2017-10-22T00:21:43.733Z,11.63
2017-10-22T00:24:11.178Z,11.80
2017-10-22T00:26:39.432Z,11.43
2017-10-22T00:29:06.881Z,12.67
2017-10-22T00:31:34.348Z,11.33
2017-10-22T00:34:01.822Z,11.50
2017-10-22T00:36:30.032Z,13.90
2017-10-22T00:38:57.472Z,14.23
2017-10-22T00:41:24.965Z,13.40
2017-10-22T00:43:52.400Z,11.80
2017-10-22T00:46:19.844Z,13.20
2017-10-22T00:48:47.316Z,15.17
2017-10-22T00:51:14.756Z,14.60
2017-10-22T00:53:42.202Z,12.63
2017-10-22T00:56:10.440Z,14.83
2017-10-22T00:58:37.885Z,12.60
2017-10-22T01:01:05.342Z,14.40
2017-10-22T01:03:32.814Z,11.83
2017-10-22T01:06:00.264Z,14.77
2017-10-22T01:08:27.708Z,12.67
2017-10-22T01:10:55.188Z,11.93
2017-10-22T01:13:22.633Z,11.60
2017-10-22T01:15:50.080Z,13.27
2017-10-22T01:18:17.557Z,14.90
2017-10-22T01:20:45.005Z,15.47
2017-10-22T01:23:12.448Z,14.53
2017-10-22T01:25:39.932Z,14.40
2017-10-22T01:28:07.376Z,15.17
2017-10-22T01:30:34.850Z,14.47
2017-10-22T01:33:02.313Z,16.63
2017-10-22T01:35:29.759Z,15.53
2017-10-22T01:37:57.200Z,15.70
2017-10-22T01:40:24.664Z,16.90
2017-10-22T01:42:52.112Z,15.53
2017-10-22T01:45:19.582Z,18.50
2017-10-22T01:47:47.053Z,13.23
2017-10-22T01:50:14.497Z,15.93
2017-10-22T01:52:41.943Z,14.43
2017-10-22T01:55:09.437Z,13.13
2017-10-22T01:57:36.876Z,16.37
2017-10-22T02:00:04.324Z,14.93
2017-10-22T02:02:31.795Z,15.60
2017-10-22T02:04:59.237Z,13.40
2017-10-22T02:07:26.984Z,16.80
2017-10-22T02:09:54.452Z,17.87
2017-10-22T02:12:21.900Z,15.13
2017-10-22T02:14:49.348Z,15.90
2017-10-22T02:17:16.813Z,17.07
2017-10-22T02:19:44.271Z,17.00
2017-10-22T02:22:11.717Z,16.73
2017-10-22T02:24:39.185Z,16.80
2017-10-22T02:27:06.642Z,14.90
2017-10-22T02:29:34.108Z,17.33
2017-10-22T02:32:01.553Z,16.60
2017-10-22T02:34:29.008Z,15.60
2017-10-22T02:36:56.486Z,15.47
2017-10-22T02:39:23.934Z,14.20
2017-10-22T02:41:51.380Z,16.10
2017-10-22T02:44:18.848Z,14.50
2017-10-22T02:46:46.293Z,16.57
2017-10-22T02:49:13.748Z,13.37
2017-10-22T02:51:41.220Z,14.97
2017-10-22T02:54:08.662Z,14.87
2017-10-22T02:56:36.105Z,14.13
2017-10-22T02:59:04.338Z,14.93
2017-10-22T03:01:31.784Z,13.17
2017-10-22T03:03:59.229Z,15.63
2017-10-22T03:06:26.701Z,14.13
2017-10-22T03:08:54.140Z,11.97
2017-10-22T03:11:21.593Z,13.97
2017-10-22T03:13:49.069Z,13.60
2017-10-22T03:16:16.821Z,14.40
2017-10-22T03:18:44.265Z,15.07
2017-10-22T03:21:11.737Z,14.00
2017-10-22T03:23:39.189Z,14.57
2017-10-22T03:26:06.632Z,16.10
2017-10-22T03:28:34.109Z,14.70
2017-10-22T03:31:02.342Z,15.17
2017-10-22T03:33:29.784Z,12.70
2017-10-22T03:35:57.265Z,13.47
2017-10-22T03:38:25.684Z,12.87
2017-10-22T03:40:53.138Z,13.10
2017-10-22T03:43:20.599Z,13.00
2017-10-22T03:45:48.065Z,12.00
2017-10-22T03:48:15.508Z,11.77
2017-10-22T03:50:42.969Z,10.30
2017-10-22T03:53:10.443Z,10.33
2017-10-22T03:55:37.889Z,10.97
2017-10-22T03:58:05.336Z,9.80
2017-10-22T04:00:32.795Z,10.27
2017-10-22T04:03:00.237Z,9.87
2017-10-22T04:05:27.679Z,10.17
2017-10-22T04:07:55.924Z,10.03
2017-10-22T04:10:23.357Z,9.40
2017-10-22T04:12:50.795Z,9.47
2017-10-22T04:15:18.256Z,8.77
2017-10-22T04:17:45.692Z,8.20
2017-10-22T04:20:13.896Z,9.37
2017-10-22T04:22:41.373Z,8.70
2017-10-22T04:25:08.814Z,8.87
2017-10-22T04:27:36.259Z,9.17
2017-10-22T04:30:03.733Z,8.90
2017-10-22T04:32:31.172Z,8.77
2017-10-22T04:34:58.612Z,7.53
2017-10-22T04:37:26.853Z,8.57
2017-10-22T04:39:54.301Z,7.77
2017-10-22T04:42:21.740Z,9.27
2017-10-22T04:44:49.209Z,9.03
2017-10-22T04:47:16.654Z,7.67
2017-10-22T04:49:44.122Z,7.60
2017-10-22T04:52:11.577Z,7.17
2017-10-22T04:54:39.012Z,8.70
2017-10-22T04:57:06.697Z,7.10
2017-10-22T04:59:34.141Z,6.97
2017-10-22T05:02:01.576Z,7.43
2017-10-22T05:04:29.045Z,6.70
2017-10-22T05:06:56.482Z,6.60
2017-10-22T05:09:24.697Z,7.27
2017-10-22T05:11:52.169Z,8.63
2017-10-22T05:14:19.610Z,8.57
2017-10-22T05:16:47.370Z,7.63
2017-10-22T05:19:14.834Z,8.80
2017-10-22T05:21:42.271Z,7.70
2017-10-22T05:24:09.713Z,6.67
2017-10-22T05:26:37.957Z,7.97
2017-10-22T05:29:05.400Z,7.80
2017-10-22T05:31:32.849Z,8.83
2017-10-22T05:34:00.309Z,8.47
2017-10-22T05:36:27.757Z,8.00
2017-10-22T05:38:55.201Z,7.67
2017-10-22T05:41:22.680Z,6.50
2017-10-22T05:43:50.118Z,7.77
2017-10-22T05:46:17.553Z,7.10
2017-10-22T05:48:45.027Z,8.60
2017-10-22T05:51:12.470Z,7.97
2017-10-22T05:53:40.681Z,7.50
2017-10-22T05:56:08.147Z,7.23
2017-10-22T05:58:35.585Z,6.43
2017-10-22T06:01:03.026Z,7.43
2017-10-22T06:03:30.496Z,7.40
2017-10-22T06:05:57.939Z,6.30
2017-10-22T06:08:25.384Z,6.57
2017-10-22T06:10:53.612Z,7.17
2017-10-22T06:13:21.052Z,6.63
2017-10-22T06:15:48.812Z,7.57
2017-10-22T06:18:16.285Z,7.20
2017-10-22T06:20:43.729Z,7.40
2017-10-22T06:23:11.709Z,6.23
2017-10-22T06:25:39.181Z,7.27
2017-10-22T06:28:06.613Z,7.73
2017-10-22T06:30:34.057Z,6.13
2017-10-22T06:33:01.536Z,6.73
2017-10-22T06:35:28.981Z,8.00
2017-10-22T06:37:56.425Z,7.77
2017-10-22T06:40:23.893Z,6.80
2017-10-22T06:42:51.336Z,5.80
2017-10-22T06:45:18.782Z,6.60
2017-10-22T06:47:47.416Z,6.70
2017-10-22T06:50:14.857Z,6.17
2017-10-22T06:52:42.315Z,6.03
2017-10-22T06:55:09.769Z,6.90
2017-10-22T06:57:37.212Z,6.47
2017-10-22T07:00:04.686Z,6.17
2017-10-22T07:02:32.138Z,6.77
2017-10-22T07:04:59.574Z,6.67
2017-10-22T07:07:27.803Z,5.60
2017-10-22T07:09:55.240Z,6.23
2017-10-22T07:12:23.472Z,5.40
2017-10-22T07:14:51.716Z,5.97
2017-10-22T07:17:19.158Z,5.17
2017-10-22T07:19:46.583Z,6.40
2017-10-22T07:22:14.110Z,5.20
2017-10-22T07:24:42.324Z,4.83
2017-10-22T07:27:09.829Z,4.73
2017-10-22T07:29:37.313Z,5.70
2017-10-22T07:32:05.518Z,5.27
2017-10-22T07:34:33.768Z,5.60
2017-10-22T07:37:02.039Z,5.40
2017-10-22T07:39:29.468Z,4.33
2017-10-22T07:41:56.904Z,4.30
2017-10-22T07:44:24.376Z,4.90
2017-10-22T07:46:51.816Z,4.10
2017-10-22T07:49:19.262Z,4.87
2017-10-22T07:51:46.721Z,5.33
2017-10-22T07:54:14.162Z,4.80
2017-10-22T07:56:41.629Z,5.23
2017-10-22T07:59:09.088Z,4.87
2017-10-22T08:01:36.559Z,4.90
2017-10-22T08:04:04.763Z,4.17
2017-10-22T08:06:32.217Z,6.00
2017-10-22T08:08:59.648Z,4.30
2017-10-22T08:11:27.908Z,3.93
2017-10-22T08:13:55.345Z,4.83
2017-10-22T08:16:23.944Z,4.03
2017-10-22T08:18:51.413Z,5.17
2017-10-22T08:21:18.857Z,5.00
2017-10-22T08:23:47.076Z,4.43
2017-10-22T08:26:14.537Z,4.83
2017-10-22T08:28:42.745Z,3.77
2017-10-22T08:31:10.985Z,3.50
2017-10-22T08:33:38.425Z,4.70
2017-10-22T08:36:05.865Z,4.27
2017-10-22T08:38:34.096Z,3.77
2017-10-22T08:41:01.540Z,3.90
2017-10-22T08:43:28.984Z,4.50
2017-10-22T08:45:56.452Z,3.97
2017-10-22T08:48:24.601Z,3.67
2017-10-22T08:50:52.037Z,4.50
2017-10-22T08:53:19.527Z,3.60
2017-10-22T08:55:47.008Z,3.97
2017-10-22T08:58:14.456Z,4.70
2017-10-22T09:00:41.949Z,4.27
2017-10-22T09:03:09.528Z,3.20
2017-10-22T09:05:37.732Z,5.90
2017-10-22T09:08:05.244Z,3.40
2017-10-22T09:10:33.477Z,4.17
2017-10-22T09:13:00.920Z,4.60
2017-10-22T09:15:28.396Z,4.20
2017-10-22T09:17:55.856Z,4.57
2017-10-22T09:20:23.343Z,3.20
2017-10-22T09:22:50.797Z,4.13
2017-10-22T09:25:18.236Z,3.60
2017-10-22T09:27:45.697Z,3.23
2017-10-22T09:30:16.881Z,3.40
2017-10-22T09:32:43.242Z,3.00
2017-10-22T09:35:10.705Z,3.20
2017-10-22T09:37:39.039Z,2.90
2017-10-22T09:42:40.468Z,3.30
2017-10-22T09:45:07.965Z,3.83
2017-10-22T09:47:36.192Z,3.47
2017-10-22T09:50:03.645Z,4.07
2017-10-22T09:52:31.109Z,3.10
2017-10-22T09:54:58.590Z,4.40
2017-10-22T09:57:26.020Z,3.37
2017-10-22T09:59:53.464Z,4.50
2017-10-22T10:02:20.937Z,3.63
2017-10-22T10:04:48.416Z,3.10
2017-10-22T10:07:16.658Z,3.57
2017-10-22T10:09:44.421Z,3.30
2017-10-22T10:12:11.879Z,3.10
2017-10-22T10:14:39.320Z,2.93
2017-10-22T10:17:06.788Z,3.20
2017-10-22T10:19:34.232Z,3.17
2017-10-22T10:22:01.673Z,2.67
2017-10-22T10:24:29.918Z,2.90
2017-10-22T10:26:57.370Z,3.47
2017-10-22T10:29:24.796Z,2.70
2017-10-22T10:31:52.264Z,5.23
2017-10-22T10:34:19.714Z,5.07
2017-10-22T10:36:47.481Z,5.10
2017-10-22T10:39:14.949Z,3.50
2017-10-22T10:41:42.408Z,3.50
2017-10-22T10:44:10.846Z,2.90
2017-10-22T10:46:39.076Z,3.10
2017-10-22T10:49:06.524Z,3.40
2017-10-22T10:51:33.975Z,2.80
2017-10-22T10:54:01.447Z,3.27
2017-10-22T10:56:28.893Z,3.40
2017-10-22T10:58:56.328Z,3.03
2017-10-22T11:01:23.792Z,3.30
2017-10-22T11:03:51.237Z,2.30
2017-10-22T11:06:18.681Z,3.33
2017-10-22T11:08:46.925Z,3.40
2017-10-22T11:11:14.361Z,3.80
2017-10-22T11:13:41.809Z,2.43
2017-10-22T11:16:09.277Z,3.60
2017-10-22T11:18:36.721Z,2.10
2017-10-22T11:21:04.187Z,2.43
2017-10-22T11:23:31.697Z,2.43
2017-10-22T11:25:59.900Z,3.00
2017-10-22T11:28:27.341Z,3.30
2017-10-22T11:30:55.583Z,4.03
2017-10-22T11:33:23.175Z,3.17
2017-10-22T11:35:50.762Z,2.60
2017-10-22T11:38:18.298Z,2.90
2017-10-22T11:40:46.533Z,2.20
2017-10-22T11:43:14.741Z,2.80
2017-10-22T11:45:43.071Z,2.27
2017-10-22T11:48:10.517Z,3.27
2017-10-22T11:50:38.550Z,3.90
2017-10-22T11:53:07.248Z,2.70
2017-10-22T11:55:34.724Z,3.17
2017-10-22T11:58:02.169Z,3.83
2017-10-22T12:00:29.614Z,4.80
2017-10-22T12:02:58.053Z,4.40
2017-10-22T12:05:25.496Z,2.93
2017-10-22T12:07:52.937Z,3.40
2017-10-22T12:10:20.440Z,4.40
2017-10-22T12:12:47.880Z,4.23
2017-10-22T12:15:15.326Z,4.30
2017-10-22T12:17:42.795Z,3.80
2017-10-22T12:20:10.245Z,3.77
2017-10-22T12:22:37.681Z,8.50
2017-10-22T12:25:05.163Z,4.33
2017-10-22T12:27:32.604Z,3.63
2017-10-22T12:30:00.074Z,4.97
2017-10-22T12:32:28.285Z,6.60
2017-10-22T12:34:55.745Z,5.20
2017-10-22T12:37:23.212Z,3.70
2017-10-22T12:39:51.461Z,7.37
2017-10-22T12:42:18.904Z,7.27
2017-10-22T12:44:46.377Z,2.80
2017-10-22T12:47:13.821Z,7.53
2017-10-22T12:49:41.263Z,5.07
2017-10-22T12:52:08.744Z,6.00
2017-10-22T12:54:37.053Z,6.00
2017-10-22T12:57:05.284Z,3.97
2017-10-22T12:59:32.766Z,3.40
2017-10-22T13:02:00.231Z,6.13
2017-10-22T13:04:27.669Z,3.63
2017-10-22T13:06:55.912Z,4.30
2017-10-22T13:09:23.340Z,7.57
2017-10-22T13:11:51.546Z,3.93
2017-10-22T13:14:19.022Z,5.93
2017-10-22T13:16:46.462Z,1.90
2017-10-22T13:19:13.901Z,3.90
2017-10-22T13:21:41.373Z,4.20
2017-10-22T13:24:08.816Z,4.60
2017-10-22T13:26:36.353Z,13.30
2017-10-22T13:29:04.818Z,3.97
2017-10-22T13:31:32.249Z,3.10
2017-10-22T13:34:01.373Z,5.30
2017-10-22T13:36:28.814Z,2.70
2017-10-22T13:38:56.265Z,3.53
2017-10-22T13:41:23.736Z,4.50
2017-10-22T13:43:51.180Z,2.97
2017-10-22T13:46:18.649Z,3.90
2017-10-22T13:48:46.097Z,3.23
2017-10-22T13:51:13.565Z,3.47
2017-10-22T13:53:41.009Z,3.63
2017-10-22T13:56:08.464Z,3.17
2017-10-22T13:58:35.944Z,3.40
2017-10-22T14:01:03.364Z,4.23
2017-10-22T14:03:30.808Z,3.43
2017-10-22T14:05:58.280Z,3.00
2017-10-22T14:08:25.721Z,2.73
2017-10-22T14:10:53.168Z,2.83
2017-10-22T14:13:21.396Z,2.73
2017-10-22T14:15:48.881Z,3.50
2017-10-22T14:18:17.098Z,2.03
2017-10-22T14:20:44.560Z,2.50
2017-10-22T14:23:12.821Z,2.93
2017-10-22T14:25:40.259Z,3.40
2017-10-22T14:28:08.493Z,2.50
2017-10-22T14:30:36.709Z,2.40
2017-10-22T14:33:04.916Z,2.60
2017-10-22T14:35:32.389Z,4.07
2017-10-22T14:37:59.815Z,2.40
2017-10-22T14:40:27.261Z,3.87
2017-10-22T14:42:55.488Z,3.30
2017-10-22T14:45:22.934Z,2.27
2017-10-22T14:47:50.393Z,2.90
2017-10-22T14:50:17.829Z,3.90
2017-10-22T14:52:45.269Z,2.87
2017-10-22T14:55:12.741Z,5.60
2017-10-22T14:57:40.197Z,3.70
2017-10-22T15:00:08.494Z,2.87
2017-10-22T15:02:35.993Z,3.63
2017-10-22T15:05:04.742Z,3.30
2017-10-22T15:07:32.163Z,4.10
2017-10-22T15:10:00.393Z,5.20
2017-10-22T15:12:27.844Z,2.73
2017-10-22T15:14:55.334Z,3.70
2017-10-22T15:17:22.788Z,3.93
2017-10-22T15:19:50.224Z,3.47
2017-10-22T15:22:17.708Z,3.23
2017-10-22T15:24:45.154Z,4.70
2017-10-22T15:27:12.592Z,4.07
2017-10-22T15:29:40.063Z,5.60
2017-10-22T15:32:07.569Z,4.53
2017-10-22T15:34:35.698Z,9.00
2017-10-22T15:37:03.968Z,5.37
2017-10-22T15:39:32.157Z,5.37
2017-10-22T15:41:59.598Z,5.40
2017-10-22T15:44:27.077Z,3.87
2017-10-22T15:46:54.511Z,3.03
2017-10-22T15:49:21.942Z,4.40
2017-10-22T15:51:49.426Z,4.87
2017-10-22T15:54:17.746Z,4.27
2017-10-22T15:56:45.232Z,9.50
2017-10-22T15:59:12.674Z,7.20
2017-10-22T16:01:40.144Z,3.70
2017-10-22T16:04:07.704Z,2.63
2017-10-22T16:06:35.157Z,4.03
2017-10-22T16:09:03.370Z,3.70
2017-10-22T16:11:31.616Z,3.60
2017-10-22T16:13:59.213Z,5.57
2017-10-22T16:16:26.657Z,4.00
2017-10-22T16:18:54.153Z,4.53
2017-10-22T16:21:22.362Z,3.00
2017-10-22T16:23:49.827Z,4.90
2017-10-22T16:26:17.277Z,4.23
2017-10-22T16:28:44.720Z,3.23
2017-10-22T16:31:12.182Z,3.00
2017-10-22T16:33:39.861Z,6.03
2017-10-22T16:36:07.308Z,7.03
2017-10-22T16:38:34.763Z,2.57
2017-10-22T16:41:02.541Z,3.03
2017-10-22T16:43:29.978Z,4.60
2017-10-22T16:45:57.417Z,5.60
2017-10-22T16:48:25.653Z,4.73
2017-10-22T16:50:53.097Z,3.77
2017-10-22T16:53:20.541Z,4.33
2017-10-22T16:55:48.016Z,4.53
2017-10-22T16:58:15.453Z,3.90
2017-10-22T17:00:42.894Z,5.33
2017-10-22T17:03:11.147Z,4.47
2017-10-22T17:05:38.597Z,4.30
2017-10-22T17:08:06.033Z,3.83
2017-10-22T17:10:33.571Z,4.00
2017-10-22T17:13:01.028Z,3.63
2017-10-22T17:15:28.508Z,3.90
2017-10-22T17:17:55.952Z,3.80
2017-10-22T17:20:26.184Z,2.73
2017-10-22T17:22:54.033Z,2.97
2017-10-22T17:25:21.483Z,3.77
2017-10-22T17:27:48.912Z,7.33
2017-10-22T17:30:17.182Z,4.47
2017-10-22T17:32:44.684Z,3.90
2017-10-22T17:35:12.131Z,3.57
2017-10-22T17:37:39.601Z,6.17
2017-10-22T17:40:07.882Z,3.03
2017-10-22T17:42:35.329Z,4.20
2017-10-22T17:45:02.845Z,3.60
2017-10-22T17:47:30.319Z,4.57
2017-10-22T17:49:57.740Z,3.90
2017-10-22T17:52:25.196Z,2.70
2017-10-22T17:54:53.715Z,4.27
2017-10-22T17:57:21.921Z,3.60
2017-10-22T17:59:49.384Z,4.90
2017-10-22T18:02:19.549Z,3.50
2017-10-22T18:04:46.990Z,3.90
2017-10-22T18:07:14.441Z,4.70
2017-10-22T18:09:41.896Z,5.40
2017-10-22T18:12:09.361Z,5.10
2017-10-22T18:14:36.829Z,4.17
2017-10-22T18:17:04.274Z,3.90
2017-10-22T18:19:31.732Z,4.93
2017-10-22T18:21:59.172Z,4.67
2017-10-22T18:24:26.673Z,4.43
2017-10-22T18:26:54.101Z,5.50
2017-10-22T18:29:21.951Z,6.90
2017-10-22T18:31:53.489Z,7.50
2017-10-22T18:34:22.079Z,6.77
2017-10-22T18:36:49.541Z,5.70
2017-10-22T18:39:17.013Z,6.87
2017-10-22T18:41:45.334Z,6.10
2017-10-22T18:44:15.602Z,5.70
2017-10-22T18:46:43.820Z,6.07
2017-10-22T18:49:11.260Z,7.20
2017-10-22T18:51:39.415Z,6.50
2017-10-22T18:54:06.852Z,6.60
2017-10-22T18:56:34.301Z,4.30
2017-10-22T18:59:01.781Z,3.73
2017-10-22T19:01:29.224Z,5.73
2017-10-22T19:03:56.669Z,5.30
2017-10-22T19:06:24.901Z,5.70
2017-10-22T19:08:52.345Z,5.30
2017-10-22T19:11:19.801Z,5.83
2017-10-22T19:13:47.293Z,5.17
2017-10-22T19:16:14.730Z,7.43
2017-10-22T19:18:42.201Z,4.30
2017-10-22T19:21:09.646Z,4.67
2017-10-22T19:23:37.089Z,3.73
2017-10-22T19:26:04.551Z,5.50
2017-10-22T19:28:31.989Z,3.90
2017-10-22T19:30:59.433Z,5.70
2017-10-22T19:33:26.900Z,4.07
2017-10-22T19:35:54.349Z,4.90
2017-10-22T19:38:21.776Z,5.70
2017-10-22T19:40:50.002Z,7.10
2017-10-22T19:43:17.440Z,3.70
2017-10-22T19:45:45.318Z,4.00
2017-10-22T19:48:12.747Z,3.83
2017-10-22T19:50:40.952Z,5.33
2017-10-22T19:53:08.433Z,3.80
2017-10-22T19:55:36.169Z,7.63
2017-10-22T19:58:03.607Z,8.00
2017-10-22T20:00:31.077Z,9.33
2017-10-22T20:02:58.516Z,4.70
2017-10-22T20:05:26.744Z,5.37
2017-10-22T20:07:54.181Z,4.30
2017-10-22T20:10:21.612Z,4.07
2017-10-22T20:12:49.081Z,5.20
2017-10-22T20:15:16.516Z,4.47
2017-10-22T20:17:44.717Z,4.20
2017-10-22T20:20:12.207Z,4.50
2017-10-22T20:22:39.649Z,4.00
2017-10-22T20:25:07.087Z,3.83
2017-10-22T20:27:34.574Z,6.63
2017-10-22T20:30:02.010Z,4.00
2017-10-22T20:32:29.782Z,3.30
2017-10-22T20:34:57.248Z,5.07
2017-10-22T20:37:24.696Z,4.73
2017-10-22T20:39:53.012Z,4.00
2017-10-22T20:42:20.484Z,4.40
2017-10-22T20:44:47.937Z,4.47
2017-10-22T20:47:15.383Z,4.00
2017-10-22T20:49:42.857Z,4.27
2017-10-22T20:52:10.298Z,4.70
2017-10-22T20:54:37.740Z,4.50
2017-10-22T20:57:05.206Z,4.60
2017-10-22T20:59:32.862Z,4.67
2017-10-22T21:02:00.324Z,5.80
2017-10-22T21:04:27.773Z,5.20
2017-10-22T21:06:55.216Z,4.00
2017-10-22T21:09:22.696Z,5.83
2017-10-22T21:11:50.162Z,5.90
2017-10-22T21:14:17.649Z,5.67
2017-10-22T21:16:47.452Z,5.53
2017-10-22T21:19:14.896Z,4.50
2017-10-22T21:21:42.340Z,5.97
2017-10-22T21:24:09.809Z,5.07
2017-10-22T21:26:37.390Z,4.50
2017-10-22T21:29:05.602Z,6.30
2017-10-22T21:31:33.100Z,5.20
2017-10-22T21:34:00.532Z,5.70
2017-10-22T21:36:28.041Z,6.40
2017-10-22T21:38:55.514Z,7.50
2017-10-22T21:41:23.729Z,6.43
2017-10-22T21:43:51.172Z,7.80
2017-10-22T21:46:18.720Z,9.40
2017-10-22T21:48:46.644Z,7.30
2017-10-22T21:51:14.084Z,8.67
2017-10-22T21:53:41.724Z,8.73
2017-10-22T21:56:10.301Z,8.80
2017-10-22T21:58:38.511Z,9.63
2017-10-22T22:01:05.986Z,11.00
2017-10-22T22:03:33.417Z,9.67
2017-10-22T22:06:00.869Z,11.53
2017-10-22T22:08:28.334Z,8.20
2017-10-22T22:10:55.768Z,8.73
2017-10-22T22:13:23.224Z,7.83
2017-10-22T22:15:50.697Z,10.30
2017-10-22T22:18:18.171Z,11.17
2017-10-22T22:20:45.625Z,9.93
2017-10-22T22:23:13.068Z,15.10
2017-10-22T22:25:40.540Z,10.50
2017-10-22T22:28:08.273Z,8.70
2017-10-22T22:30:35.718Z,9.27
2017-10-22T22:33:03.525Z,9.03
2017-10-22T22:35:30.974Z,10.90
2017-10-22T22:37:58.452Z,7.73
2017-10-22T22:40:25.900Z,8.53
2017-10-22T22:42:53.344Z,8.23
2017-10-22T22:45:21.096Z,8.20
2017-10-22T22:47:48.560Z,7.50
2017-10-22T22:50:15.997Z,7.40
2017-10-22T22:52:43.441Z,6.67
2017-10-22T22:55:11.676Z,7.13
2017-10-22T22:57:39.117Z,5.87
2017-10-22T23:00:06.560Z,7.93
2017-10-22T23:02:34.023Z,8.20
2017-10-22T23:05:01.472Z,7.30
2017-10-22T23:07:28.915Z,9.43
2017-10-22T23:09:56.389Z,9.17
2017-10-22T23:12:23.825Z,8.10
2017-10-22T23:14:51.268Z,8.07
2017-10-22T23:17:19.512Z,8.77
2017-10-22T23:19:46.953Z,8.30
2017-10-22T23:22:14.412Z,8.67
2017-10-22T23:24:41.872Z,7.80
2017-10-22T23:27:09.313Z,8.97
2017-10-22T23:29:36.799Z,7.20
2017-10-22T23:32:05.000Z,8.20
2017-10-22T23:34:33.731Z,8.23
2017-10-22T23:37:01.197Z,8.43
2017-10-22T23:39:28.801Z,9.13
2017-10-22T23:41:56.246Z,8.40
2017-10-22T23:44:23.721Z,8.27
2017-10-22T23:46:51.169Z,9.17
2017-10-22T23:49:18.881Z,7.47
2017-10-22T23:51:46.349Z,9.07
2017-10-22T23:54:13.797Z,8.23
2017-10-22T23:56:41.233Z,8.00
2017-10-22T23:59:09.491Z,7.60
